Time;durP1;ratioP1;P1;durP2;ratioP2;P2;SDS_P1;SDS_P2;PMS_P1;PMS_P2;Temp;Humidity;BMP_temperature;BMP_pressure;BME280_temperature;BME280_humidity;BME280_pressure;Samples;Min_cycle;Max_cycle;Signal;HPM_P1;HPM_P2
2022/10/14 00:00:37;;;;;;;;;;;13.80;99.90;;;;;;5074196;28;19929;-74
2022/10/14 00:03:05;;;;;;;;;;;13.80;99.90;;;;;;5068700;28;19928;-74
2022/10/14 00:05:33;;;;;;;;;;;13.80;99.90;;;;;;5083264;22;19936;-73
2022/10/14 00:07:59;;;;;;;;;;;13.80;99.90;;;;;;5082068;28;20458;-73
2022/10/14 00:10:26;;;;;;;;;;;13.80;99.90;;;;;;5086841;28;19931;-73
2022/10/14 00:12:53;;;;;;;;;;;13.80;99.90;;;;;;5088736;28;19928;-73
2022/10/14 00:15:20;;;;;;;;;;;13.80;99.90;;;;;;5080577;28;20070;-73
2022/10/14 00:17:47;;;;;;;;;;;13.80;99.90;;;;;;5068563;28;19928;-74
2022/10/14 00:20:14;;;;;;;;;;;13.80;99.90;;;;;;5067381;28;20006;-73
2022/10/14 00:22:42;;;;;;;;;;;13.80;99.90;;;;;;5059898;28;19924;-73
2022/10/14 00:25:08;;;;;;;;;;;13.80;99.90;;;;;;5067087;28;19990;-72
2022/10/14 00:27:38;;;;;;;;;;;13.80;99.90;;;;;;5063596;28;19925;-73
2022/10/14 00:30:09;;;;;;;;;;;13.80;99.90;;;;;;5067392;28;19928;-73
2022/10/14 00:32:36;;;;;;;;;;;13.80;99.90;;;;;;5066740;28;19935;-73
2022/10/14 00:35:03;;;;;;;;;;;13.80;99.90;;;;;;5059103;28;19932;-71
2022/10/14 00:37:29;;;;;;;;;;;13.80;99.90;;;;;;5067388;28;19928;-73
2022/10/14 00:39:58;;;;;;;;;;;13.80;99.90;;;;;;5067402;28;19933;-72
2022/10/14 00:42:26;;;;;;;;;;;13.80;99.90;;;;;;5067519;28;19928;-72
2022/10/14 00:45:10;;;;;;;;;;;13.80;99.90;;;;;;5066143;28;19936;-72
2022/10/14 00:47:37;;;;;;;;;;;13.80;99.90;;;;;;5047559;28;19981;-72
2022/10/14 00:50:09;;;;;;;;;;;13.80;99.90;;;;;;5050680;28;19928;-72
2022/10/14 00:52:35;;;;;;;;;;;13.80;99.90;;;;;;5066619;28;19929;-72
2022/10/14 00:55:06;;;;;;;;;;;13.80;99.90;;;;;;5063413;28;19935;-73
2022/10/14 00:57:33;;;;;;;;;;;13.80;99.90;;;;;;5051491;28;20487;-73
2022/10/14 01:00:03;;;;;;;;;;;13.80;99.90;;;;;;5057792;28;19928;-73
2022/10/14 01:02:29;;;;;;;;;;;13.80;99.90;;;;;;5064121;28;19986;-72
2022/10/14 01:04:56;;;;;;;;;;;13.80;99.90;;;;;;5056161;28;19998;-72
2022/10/14 01:07:27;;;;;;;;;;;13.80;99.90;;;;;;5049450;28;20039;-74
2022/10/14 01:09:57;;;;;;;;;;;13.80;99.90;;;;;;5051163;28;20340;-72
2022/10/14 01:12:27;;;;;;;;;;;13.80;99.90;;;;;;5064262;28;19935;-73
2022/10/14 01:14:58;;;;;;;;;;;13.80;99.90;;;;;;5070701;28;19928;-72
2022/10/14 01:17:30;;;;;;;;;;;13.80;99.90;;;;;;5063624;28;20027;-72
2022/10/14 01:20:07;;;;;;;;;;;13.80;99.90;;;;;;5060168;28;19928;-72
2022/10/14 01:22:35;;;;;;;;;;;13.70;99.90;;;;;;5066138;28;19928;-72
2022/10/14 01:25:06;;;;;;;;;;;13.70;99.90;;;;;;5068547;28;20377;-72
2022/10/14 01:27:42;;;;;;;;;;;13.80;99.90;;;;;;5068955;28;19939;-72
2022/10/14 01:30:13;;;;;;;;;;;13.80;99.90;;;;;;5070082;28;19936;-72
2022/10/14 01:32:47;;;;;;;;;;;13.80;99.90;;;;;;5062747;28;19935;-73
2022/10/14 01:35:19;;;;;;;;;;;13.80;99.90;;;;;;5063432;28;19932;-71
2022/10/14 01:37:51;;;;;;;;;;;13.80;99.90;;;;;;5067845;28;20024;-72
2022/10/14 01:40:21;;;;;;;;;;;13.80;99.90;;;;;;5065159;28;19929;-72
2022/10/14 01:42:49;;;;;;;;;;;13.80;99.90;;;;;;5059331;28;19933;-72
2022/10/14 01:45:19;;;;;;;;;;;13.80;99.90;;;;;;5060413;28;19924;-72
2022/10/14 01:47:48;;;;;;;;;;;13.80;99.90;;;;;;5068628;28;19998;-72
2022/10/14 01:50:16;;;;;;;;;;;13.80;99.90;;;;;;5062460;28;19998;-72
2022/10/14 01:52:45;;;;;;;;;;;13.80;99.90;;;;;;5069230;28;19928;-72
2022/10/14 01:55:15;;;;;;;;;;;13.80;99.90;;;;;;5054379;28;19992;-72
2022/10/14 01:57:43;;;;;;;;;;;13.80;99.90;;;;;;5060878;28;20347;-73
2022/10/14 02:00:11;;;;;;;;;;;13.80;99.90;;;;;;5050525;28;19925;-73
2022/10/14 02:02:42;;;;;;;;;;;13.80;99.90;;;;;;5057757;28;19936;-72
2022/10/14 02:05:13;;;;;;;;;;;13.80;99.90;;;;;;5058483;28;19948;-72
2022/10/14 02:07:41;;;;;;;;;;;13.80;99.90;;;;;;5056864;28;19932;-72
2022/10/14 02:10:13;;;;;;;;;;;13.80;99.90;;;;;;5075442;28;20359;-72
2022/10/14 02:12:45;;;;;;;;;;;13.80;99.90;;;;;;5069346;28;19946;-72
2022/10/14 02:15:16;;;;;;;;;;;13.70;99.90;;;;;;5073514;28;19932;-72
2022/10/14 02:17:49;;;;;;;;;;;13.70;99.90;;;;;;5052291;28;19933;-71
2022/10/14 02:20:20;;;;;;;;;;;13.70;99.90;;;;;;5066917;28;19935;-72
2022/10/14 02:22:49;;;;;;;;;;;13.70;99.90;;;;;;5076967;28;20297;-72
2022/10/14 02:25:17;;;;;;;;;;;13.60;99.90;;;;;;5069399;28;19932;-72
2022/10/14 02:27:46;;;;;;;;;;;13.60;99.90;;;;;;5068179;28;19936;-72
2022/10/14 02:30:13;;;;;;;;;;;13.20;99.90;;;;;;5069354;28;19933;-72
2022/10/14 02:32:40;;;;;;;;;;;13.60;99.90;;;;;;5058931;28;19929;-72
2022/10/14 02:35:09;;;;;;;;;;;13.60;99.90;;;;;;5066820;28;19985;-72
2022/10/14 02:37:37;;;;;;;;;;;13.60;99.90;;;;;;5069316;28;19931;-72
2022/10/14 02:40:08;;;;;;;;;;;13.60;99.90;;;;;;5066081;28;19928;-72
2022/10/14 02:42:34;;;;;;;;;;;13.60;99.90;;;;;;5052982;28;19925;-72
2022/10/14 02:45:04;;;;;;;;;;;13.60;99.90;;;;;;5059290;28;20010;-72
2022/10/14 02:47:31;;;;;;;;;;;13.70;99.90;;;;;;5068918;28;19989;-73
2022/10/14 02:49:57;;;;;;;;;;;13.70;99.90;;;;;;5067328;28;19928;-74
2022/10/14 02:52:26;;;;;;;;;;;13.70;99.90;;;;;;5061826;28;20386;-72
2022/10/14 02:54:53;;;;;;;;;;;13.70;99.90;;;;;;5057315;28;19928;-73
2022/10/14 02:57:19;;;;;;;;;;;13.80;99.90;;;;;;5066737;28;19982;-73
2022/10/14 02:59:48;;;;;;;;;;;13.80;99.90;;;;;;5067117;28;20330;-73
2022/10/14 03:02:15;;;;;;;;;;;13.80;99.90;;;;;;5068399;28;19932;-73
2022/10/14 03:04:42;;;;;;;;;;;13.80;99.90;;;;;;5065857;28;19928;-73
2022/10/14 03:07:09;;;;;;;;;;;13.80;99.90;;;;;;5067730;28;19925;-72
2022/10/14 03:09:43;;;;;;;;;;;13.80;99.90;;;;;;5066397;28;19928;-73
2022/10/14 03:12:10;;;;;;;;;;;14.70;99.90;;;;;;5087074;28;19928;-73
2022/10/14 03:14:37;;;;;;;;;;;13.70;99.90;;;;;;5083769;28;19928;-73
2022/10/14 03:17:07;;;;;;;;;;;13.70;99.90;;;;;;5058382;28;20027;-73
2022/10/14 03:19:34;;;;;;;;;;;13.70;99.90;;;;;;5065542;28;19939;-72
2022/10/14 03:22:01;;;;;;;;;;;13.70;99.90;;;;;;5061865;28;19931;-72
2022/10/14 03:24:28;;;;;;;;;;;13.70;99.90;;;;;;5067368;28;20418;-72
2022/10/14 03:27:20;;;;;;;;;;;13.70;99.90;;;;;;5066742;28;19929;-72
2022/10/14 03:29:50;;;;;;;;;;;13.70;99.90;;;;;;5065902;28;19991;-70
2022/10/14 03:32:20;;;;;;;;;;;13.70;99.90;;;;;;5059834;28;19962;-74
2022/10/14 03:35:13;;;;;;;;;;;13.70;99.90;;;;;;5053996;28;19935;-73
2022/10/14 03:37:43;;;;;;;;;;;13.70;99.90;;;;;;5059746;28;20007;-73
2022/10/14 03:40:11;;;;;;;;;;;13.70;99.90;;;;;;5066672;28;19974;-73
2022/10/14 03:42:41;;;;;;;;;;;13.70;99.90;;;;;;5058522;28;19928;-73
2022/10/14 03:45:08;;;;;;;;;;;13.70;99.90;;;;;;5053827;28;19967;-73
2022/10/14 03:47:37;;;;;;;;;;;13.70;99.90;;;;;;5063700;28;19966;-73
2022/10/14 03:50:04;;;;;;;;;;;13.70;99.90;;;;;;5058394;28;20572;-72
2022/10/14 03:52:39;;;;;;;;;;;12.70;99.90;;;;;;5049845;28;19990;-73
2022/10/14 03:55:11;;;;;;;;;;;13.70;99.90;;;;;;5055932;28;20035;-73
2022/10/14 03:57:40;;;;;;;;;;;13.70;99.90;;;;;;5066136;28;20017;-73
2022/10/14 04:00:08;;;;;;;;;;;13.70;99.90;;;;;;5065578;28;20601;-73
2022/10/14 04:02:40;;;;;;;;;;;13.70;99.90;;;;;;5068012;28;19935;-73
2022/10/14 04:05:12;;;;;;;;;;;13.70;99.90;;;;;;5066702;28;19935;-73
2022/10/14 04:07:41;;;;;;;;;;;13.70;99.90;;;;;;5050996;28;19951;-73
2022/10/14 04:10:09;;;;;;;;;;;13.70;99.90;;;;;;5097430;28;20027;-74
2022/10/14 04:12:42;;;;;;;;;;;13.70;99.90;;;;;;5085836;28;19985;-73
2022/10/14 04:15:18;;;;;;;;;;;13.70;99.90;;;;;;5073154;28;19936;-73
2022/10/14 04:18:04;;;;;;;;;;;13.60;99.90;;;;;;5065658;28;19935;-73
2022/10/14 04:20:31;;;;;;;;;;;13.60;99.90;;;;;;5060826;28;19943;-73
2022/10/14 04:22:59;;;;;;;;;;;13.60;99.90;;;;;;5058734;28;20358;-73
2022/10/14 04:25:26;;;;;;;;;;;13.60;99.90;;;;;;5068611;28;19966;-73
2022/10/14 04:28:00;;;;;;;;;;;13.60;99.90;;;;;;5067609;28;19967;-73
2022/10/14 04:30:38;;;;;;;;;;;13.60;99.90;;;;;;5067680;28;20592;-74
2022/10/14 04:33:06;;;;;;;;;;;13.60;99.90;;;;;;5050108;28;19924;-73
2022/10/14 04:35:34;;;;;;;;;;;13.60;99.90;;;;;;5047601;28;19964;-73
2022/10/14 04:38:00;;;;;;;;;;;13.50;99.90;;;;;;5047499;28;20061;-73
2022/10/14 04:40:29;;;;;;;;;;;13.50;99.90;;;;;;5047219;28;19929;-72
2022/10/14 04:42:58;;;;;;;;;;;13.50;99.90;;;;;;5049808;28;19940;-74
2022/10/14 04:45:34;;;;;;;;;;;13.50;99.90;;;;;;5062476;28;19935;-73
2022/10/14 04:48:03;;;;;;;;;;;13.50;99.90;;;;;;5067843;28;19928;-72
2022/10/14 04:50:30;;;;;;;;;;;13.60;99.90;;;;;;5056854;28;19932;-71
2022/10/14 04:53:35;;;;;;;;;;;13.60;99.90;;;;;;5010428;28;19979;-72
2022/10/14 04:56:09;;;;;;;;;;;13.60;99.90;;;;;;4993856;28;20590;-72
2022/10/14 04:58:41;;;;;;;;;;;13.50;99.90;;;;;;5051446;28;20187;-73
2022/10/14 05:01:09;;;;;;;;;;;13.50;99.90;;;;;;5087617;28;19963;-73
2022/10/14 05:03:39;;;;;;;;;;;13.50;99.90;;;;;;5067406;28;19928;-74
2022/10/14 05:06:06;;;;;;;;;;;13.50;99.90;;;;;;5055480;28;19979;-73
2022/10/14 05:08:36;;;;;;;;;;;13.50;99.90;;;;;;5051572;28;20002;-74
2022/10/14 05:11:06;;;;;;;;;;;13.50;99.90;;;;;;5057734;28;19961;-75
2022/10/14 05:13:42;;;;;;;;;;;13.50;99.90;;;;;;5091384;28;19935;-75
2022/10/14 05:16:10;;;;;;;;;;;13.40;99.90;;;;;;5072029;28;19928;-75
2022/10/14 05:18:39;;;;;;;;;;;13.40;99.90;;;;;;5062508;28;19935;-75
2022/10/14 05:21:09;;;;;;;;;;;13.40;99.90;;;;;;5068016;28;19928;-75
2022/10/14 05:23:48;;;;;;;;;;;13.40;99.90;;;;;;5059561;28;19960;-75
2022/10/14 05:26:15;;;;;;;;;;;13.40;99.90;;;;;;5057237;28;19934;-75
2022/10/14 05:28:42;;;;;;;;;;;13.40;99.90;;;;;;5063242;28;19944;-75
2022/10/14 05:31:10;;;;;;;;;;;13.40;99.90;;;;;;5063371;28;19977;-75
2022/10/14 05:33:45;;;;;;;;;;;13.40;99.90;;;;;;5060818;28;19999;-72
2022/10/14 05:36:12;;;;;;;;;;;13.50;99.90;;;;;;5064838;28;20465;-72
2022/10/14 05:38:39;;;;;;;;;;;13.50;99.90;;;;;;5063828;28;20035;-72
2022/10/14 05:41:06;;;;;;;;;;;13.50;99.90;;;;;;5060156;28;19924;-73
2022/10/14 05:43:33;;;;;;;;;;;13.50;99.90;;;;;;5055885;28;19940;-73
2022/10/14 05:46:02;;;;;;;;;;;13.50;99.90;;;;;;5075482;28;19930;-72
2022/10/14 05:48:34;;;;;;;;;;;13.50;99.90;;;;;;5060480;28;20282;-73
2022/10/14 05:51:02;;;;;;;;;;;13.50;99.90;;;;;;5064411;28;19978;-73
2022/10/14 05:53:31;;;;;;;;;;;13.50;99.90;;;;;;5063824;28;19933;-73
2022/10/14 05:56:04;;;;;;;;;;;13.60;99.90;;;;;;5057721;28;19929;-73
2022/10/14 05:58:31;;;;;;;;;;;13.60;99.90;;;;;;5057824;28;19959;-73
2022/10/14 06:00:59;;;;;;;;;;;13.60;99.90;;;;;;5084394;28;20237;-73
2022/10/14 06:03:26;;;;;;;;;;;13.60;99.90;;;;;;5088377;28;19932;-73
2022/10/14 06:05:55;;;;;;;;;;;13.70;99.90;;;;;;5089549;28;19931;-73
2022/10/14 06:08:22;;;;;;;;;;;13.70;99.90;;;;;;5083051;28;20439;-72
2022/10/14 06:10:49;;;;;;;;;;;13.70;99.90;;;;;;5065071;28;19932;-73
2022/10/14 06:13:16;;;;;;;;;;;13.70;99.90;;;;;;5072824;28;19981;-73
2022/10/14 06:15:46;;;;;;;;;;;13.70;99.90;;;;;;5068436;28;19932;-71
2022/10/14 06:18:13;;;;;;;;;;;13.70;99.90;;;;;;5070511;28;20326;-72
2022/10/14 06:20:39;;;;;;;;;;;13.80;99.90;;;;;;5068429;28;19928;-72
2022/10/14 06:23:07;;;;;;;;;;;13.80;99.90;;;;;;5062009;28;20027;-73
2022/10/14 06:25:35;;;;;;;;;;;13.80;99.90;;;;;;5063838;28;19931;-72
2022/10/14 06:28:03;;;;;;;;;;;13.80;99.90;;;;;;5070269;28;19935;-73
2022/10/14 06:30:30;;;;;;;;;;;13.90;99.90;;;;;;5065443;28;20341;-72
2022/10/14 06:32:57;;;;;;;;;;;13.90;99.90;;;;;;5067077;28;19932;-72
2022/10/14 06:35:24;;;;;;;;;;;14.00;99.90;;;;;;5067998;28;20326;-73
2022/10/14 06:37:51;;;;;;;;;;;14.00;99.90;;;;;;5069580;28;19928;-73
2022/10/14 06:40:19;;;;;;;;;;;14.10;99.90;;;;;;5055940;28;19935;-73
2022/10/14 06:42:45;;;;;;;;;;;14.10;99.90;;;;;;5066076;28;19928;-73
2022/10/14 06:45:12;;;;;;;;;;;14.20;99.90;;;;;;5059104;28;19928;-73
2022/10/14 06:47:39;;;;;;;;;;;14.20;99.90;;;;;;5069069;28;19932;-73
2022/10/14 06:50:07;;;;;;;;;;;14.20;99.90;;;;;;5069293;28;19940;-74
2022/10/14 06:52:34;;;;;;;;;;;14.20;99.90;;;;;;5069750;28;19928;-73
2022/10/14 06:55:00;;;;;;;;;;;14.20;99.90;;;;;;5069230;28;19935;-73
2022/10/14 06:57:28;;;;;;;;;;;14.30;99.90;;;;;;5084614;28;19924;-72
2022/10/14 06:59:55;;;;;;;;;;;14.30;99.90;;;;;;5080673;28;19928;-73
2022/10/14 07:02:23;;;;;;;;;;;14.30;99.90;;;;;;5070663;28;20302;-72
2022/10/14 07:04:49;;;;;;;;;;;14.30;99.90;;;;;;5052495;28;19932;-72
2022/10/14 07:07:16;;;;;;;;;;;14.30;99.90;;;;;;5049350;28;19987;-71
2022/10/14 07:09:43;;;;;;;;;;;14.30;99.90;;;;;;5048252;28;19924;-72
2022/10/14 07:12:09;;;;;;;;;;;14.30;99.90;;;;;;5060896;28;19931;-73
2022/10/14 07:14:39;;;;;;;;;;;14.30;99.90;;;;;;5059370;28;20455;-72
2022/10/14 07:17:06;;;;;;;;;;;14.30;99.90;;;;;;5068243;28;19939;-72
2022/10/14 07:19:33;;;;;;;;;;;14.30;99.90;;;;;;5068906;28;19928;-72
2022/10/14 07:22:00;;;;;;;;;;;14.30;99.90;;;;;;5068406;28;20443;-73
2022/10/14 07:24:27;;;;;;;;;;;14.30;99.90;;;;;;5068525;28;19928;-73
2022/10/14 07:26:53;;;;;;;;;;;14.30;99.90;;;;;;5068984;28;19924;-72
2022/10/14 07:29:20;;;;;;;;;;;14.30;99.90;;;;;;5068246;28;19925;-72
2022/10/14 07:31:48;;;;;;;;;;;14.30;99.90;;;;;;5063755;28;20511;-72
2022/10/14 07:34:14;;;;;;;;;;;14.50;99.90;;;;;;5067325;28;19932;-72
2022/10/14 07:36:41;;;;;;;;;;;14.50;99.90;;;;;;5062005;28;19952;-73
2022/10/14 07:39:08;;;;;;;;;;;14.50;99.90;;;;;;5071184;28;19928;-73
2022/10/14 07:41:36;;;;;;;;;;;14.60;99.90;;;;;;5066787;28;19936;-72
2022/10/14 07:44:05;;;;;;;;;;;14.70;99.90;;;;;;5059717;28;19932;-72
2022/10/14 07:46:32;;;;;;;;;;;14.80;99.90;;;;;;5067024;28;19935;-73
2022/10/14 07:49:02;;;;;;;;;;;14.80;99.90;;;;;;5068024;28;19958;-73
2022/10/14 07:51:28;;;;;;;;;;;14.90;99.90;;;;;;5064522;28;19932;-72
2022/10/14 07:53:56;;;;;;;;;;;14.90;99.90;;;;;;5068093;28;19975;-72
2022/10/14 07:56:23;;;;;;;;;;;15.00;99.90;;;;;;5068732;28;19929;-72
2022/10/14 07:58:50;;;;;;;;;;;15.00;99.90;;;;;;5068674;28;19928;-73
2022/10/14 08:01:17;;;;;;;;;;;15.00;99.90;;;;;;5068767;28;19928;-72
2022/10/14 08:03:44;;;;;;;;;;;15.10;99.90;;;;;;5070457;28;20038;-72
2022/10/14 08:06:13;;;;;;;;;;;15.10;99.90;;;;;;5065574;28;19936;-74
2022/10/14 08:08:40;;;;;;;;;;;15.10;99.90;;;;;;5068290;28;19959;-74
2022/10/14 08:11:08;;;;;;;;;;;15.10;99.90;;;;;;5068088;28;19929;-74
2022/10/14 08:13:35;;;;;;;;;;;15.10;99.90;;;;;;5067931;28;20403;-74
2022/10/14 08:16:02;;;;;;;;;;;15.10;99.90;;;;;;5061349;28;19979;-72
2022/10/14 08:18:29;;;;;;;;;;;15.20;99.90;;;;;;5052259;28;20398;-73
2022/10/14 08:20:55;;;;;;;;;;;15.20;99.90;;;;;;5056645;28;20453;-72
2022/10/14 08:23:25;;;;;;;;;;;15.30;99.90;;;;;;5063150;28;19947;-74
2022/10/14 08:25:51;;;;;;;;;;;15.40;99.90;;;;;;5062138;28;19924;-74
2022/10/14 08:28:18;;;;;;;;;;;15.40;99.90;;;;;;5069026;28;19988;-74
2022/10/14 08:30:46;;;;;;;;;;;15.50;99.90;;;;;;5063144;28;20625;-74
2022/10/14 08:33:13;;;;;;;;;;;15.60;99.90;;;;;;5074930;28;20568;-73
2022/10/14 08:35:40;;;;;;;;;;;15.80;99.90;;;;;;5075105;28;19928;-72
2022/10/14 08:38:07;;;;;;;;;;;15.80;99.90;;;;;;5076235;28;19956;-72
2022/10/14 08:40:43;;;;;;;;;;;16.00;99.90;;;;;;5073873;28;20050;-72
2022/10/14 08:43:17;;;;;;;;;;;16.10;99.90;;;;;;5078372;28;19928;-72
2022/10/14 08:45:47;;;;;;;;;;;16.20;99.90;;;;;;5074078;28;19939;-72
2022/10/14 08:48:16;;;;;;;;;;;16.30;99.90;;;;;;5075226;28;19932;-72
2022/10/14 08:50:45;;;;;;;;;;;16.40;99.90;;;;;;5070216;28;19982;-73
2022/10/14 08:53:14;;;;;;;;;;;16.40;99.90;;;;;;5074320;28;19932;-74
2022/10/14 08:55:43;;;;;;;;;;;16.50;99.90;;;;;;5073491;28;19989;-73
2022/10/14 08:58:13;;;;;;;;;;;16.60;99.90;;;;;;5076307;28;19948;-74
2022/10/14 09:00:42;;;;;;;;;;;16.60;99.90;;;;;;5073934;28;19924;-74
2022/10/14 09:03:14;;;;;;;;;;;16.70;99.90;;;;;;5075236;28;19925;-74
2022/10/14 09:05:41;;;;;;;;;;;16.80;99.90;;;;;;5073512;28;19978;-74
2022/10/14 09:08:11;;;;;;;;;;;16.80;99.90;;;;;;5076578;28;19943;-74
2022/10/14 09:10:40;;;;;;;;;;;16.90;99.90;;;;;;5072691;28;19929;-74
2022/10/14 09:13:10;;;;;;;;;;;16.90;99.90;;;;;;5074033;28;20447;-74
2022/10/14 09:15:39;;;;;;;;;;;16.80;99.90;;;;;;5073203;28;19932;-75
2022/10/14 09:18:12;;;;;;;;;;;16.80;99.90;;;;;;5071617;28;19925;-73
2022/10/14 09:20:40;;;;;;;;;;;16.90;99.90;;;;;;5065927;28;19951;-73
2022/10/14 09:23:14;;;;;;;;;;;16.90;99.90;;;;;;5074024;28;19929;-73
2022/10/14 09:25:45;;;;;;;;;;;16.90;99.90;;;;;;5072966;28;19928;-73
2022/10/14 09:28:13;;;;;;;;;;;16.80;99.90;;;;;;5070318;28;19971;-73
2022/10/14 09:30:40;;;;;;;;;;;16.70;99.90;;;;;;5072932;28;19935;-73
2022/10/14 09:33:11;;;;;;;;;;;16.70;99.90;;;;;;5074066;28;19941;-73
2022/10/14 09:35:40;;;;;;;;;;;16.70;99.90;;;;;;5066555;28;19994;-73
2022/10/14 09:38:07;;;;;;;;;;;16.70;99.90;;;;;;5071037;28;19936;-74
2022/10/14 09:40:35;;;;;;;;;;;16.80;99.90;;;;;;5071367;28;19974;-73
2022/10/14 09:43:04;;;;;;;;;;;16.90;99.90;;;;;;5063945;28;19940;-74
2022/10/14 09:45:46;;;;;;;;;;;17.00;99.90;;;;;;5069716;28;19929;-74
2022/10/14 09:48:15;;;;;;;;;;;17.10;99.90;;;;;;5062051;28;19940;-74
2022/10/14 09:50:43;;;;;;;;;;;17.30;99.90;;;;;;5070606;28;20405;-74
2022/10/14 09:53:15;;;;;;;;;;;17.20;99.90;;;;;;5074111;28;19935;-74
2022/10/14 09:55:46;;;;;;;;;;;17.20;99.90;;;;;;5071124;28;20128;-74
2022/10/14 09:58:15;;;;;;;;;;;17.10;99.90;;;;;;5071555;28;20433;-74
2022/10/14 10:00:45;;;;;;;;;;;17.00;99.90;;;;;;5071319;28;19947;-74
2022/10/14 10:03:24;;;;;;;;;;;17.00;99.90;;;;;;5071035;28;20344;-74
2022/10/14 10:05:58;;;;;;;;;;;17.00;99.90;;;;;;5070146;28;19977;-74
2022/10/14 10:08:25;;;;;;;;;;;16.90;99.90;;;;;;5076875;28;19931;-74
2022/10/14 10:11:00;;;;;;;;;;;16.90;99.90;;;;;;5076576;28;19936;-74
2022/10/14 10:13:34;;;;;;;;;;;17.00;99.90;;;;;;5062960;28;19975;-74
2022/10/14 10:16:03;;;;;;;;;;;17.00;99.90;;;;;;5067832;28;19928;-73
2022/10/14 10:18:30;;;;;;;;;;;17.00;99.90;;;;;;5069928;28;19928;-74
2022/10/14 10:21:05;;;;;;;;;;;17.00;99.90;;;;;;5066916;28;19978;-72
2022/10/14 10:23:33;;;;;;;;;;;17.00;99.90;;;;;;5060573;28;19929;-72
2022/10/14 10:26:24;;;;;;;;;;;17.00;99.90;;;;;;5066477;28;20320;-72
2022/10/14 10:28:51;;;;;;;;;;;17.00;99.90;;;;;;5065955;28;19928;-73
2022/10/14 10:31:24;;;;;;;;;;;17.10;99.90;;;;;;5051434;28;19936;-73
2022/10/14 10:33:54;;;;;;;;;;;17.10;99.90;;;;;;5070817;28;19936;-73
2022/10/14 10:36:27;;;;;;;;;;;17.00;99.90;;;;;;5068931;28;19978;-74
2022/10/14 10:38:58;;;;;;;;;;;17.00;99.90;;;;;;5061639;28;19929;-74
2022/10/14 10:41:34;;;;;;;;;;;17.00;99.90;;;;;;5064293;28;20409;-74
2022/10/14 10:44:07;;;;;;;;;;;17.00;99.90;;;;;;5073628;28;19971;-75
2022/10/14 10:46:50;;;;;;;;;;;17.00;99.90;;;;;;5049161;28;19960;-75
2022/10/14 10:49:23;;;;;;;;;;;17.00;99.90;;;;;;5049509;28;20011;-75
2022/10/14 10:51:54;;;;;;;;;;;17.00;99.90;;;;;;5063375;28;19944;-75
2022/10/14 10:54:30;;;;;;;;;;;17.10;99.90;;;;;;5068463;28;19986;-74
2022/10/14 10:56:58;;;;;;;;;;;17.10;99.90;;;;;;5068371;28;20019;-74
2022/10/14 10:59:32;;;;;;;;;;;17.10;99.90;;;;;;5061428;28;20342;-74
2022/10/14 11:02:14;;;;;;;;;;;17.10;99.90;;;;;;5069439;28;19940;-74
2022/10/14 11:04:45;;;;;;;;;;;17.10;99.90;;;;;;5068067;28;19928;-75
2022/10/14 11:12:58;;;;;;;;;;;17.10;99.90;;;;;;5062439;28;19935;-75
2022/10/14 11:15:30;;;;;;;;;;;17.10;99.90;;;;;;5070460;28;20002;-74
2022/10/14 11:18:01;;;;;;;;;;;17.10;99.90;;;;;;5068880;28;20564;-75
2022/10/14 11:20:35;;;;;;;;;;;17.10;99.90;;;;;;5068014;28;19932;-74
2022/10/14 11:23:09;;;;;;;;;;;17.10;99.90;;;;;;5069497;28;19928;-74
2022/10/14 11:25:43;;;;;;;;;;;16.90;99.90;;;;;;5086817;28;19925;-75
2022/10/14 11:28:11;;;;;;;;;;;16.80;99.90;;;;;;5076503;28;19936;-74
2022/10/14 11:30:42;;;;;;;;;;;16.70;99.90;;;;;;5061744;28;20564;-73
2022/10/14 11:33:20;;;;;;;;;;;16.60;99.90;;;;;;5065928;28;19933;-74
2022/10/14 11:35:50;;;;;;;;;;;16.40;99.90;;;;;;5064560;28;20286;-73
2022/10/14 11:38:24;;;;;;;;;;;16.20;99.90;;;;;;5071791;28;20776;-74
2022/10/14 11:40:55;;;;;;;;;;;16.10;99.90;;;;;;5072648;28;19936;-75
2022/10/14 11:43:27;;;;;;;;;;;16.00;99.90;;;;;;5066538;28;20868;-76
2022/10/14 11:45:57;;;;;;;;;;;15.90;99.90;;;;;;5070979;28;20388;-75
2022/10/14 11:48:28;;;;;;;;;;;15.90;99.90;;;;;;5071560;28;19929;-75
2022/10/14 11:50:58;;;;;;;;;;;15.90;99.90;;;;;;5067673;28;19928;-74
2022/10/14 11:53:32;;;;;;;;;;;16.00;99.90;;;;;;5061499;28;19928;-74
2022/10/14 11:56:02;;;;;;;;;;;16.00;99.90;;;;;;5068313;28;19966;-75
2022/10/14 11:58:29;;;;;;;;;;;16.10;99.90;;;;;;5067900;28;19928;-75
2022/10/14 12:00:59;;;;;;;;;;;16.20;99.90;;;;;;5067071;28;19928;-75
2022/10/14 12:03:36;;;;;;;;;;;16.30;99.90;;;;;;5047795;28;19933;-75
2022/10/14 12:06:09;;;;;;;;;;;16.50;99.90;;;;;;5072888;22;20050;-78
2022/10/14 12:08:44;;;;;;;;;;;16.70;99.90;;;;;;5066304;28;19931;-78
2022/10/14 12:11:17;;;;;;;;;;;16.70;99.90;;;;;;5063663;28;20436;-78
2022/10/14 12:13:46;;;;;;;;;;;16.90;99.90;;;;;;5066029;28;19982;-77
2022/10/14 12:16:13;;;;;;;;;;;17.00;99.90;;;;;;5079289;28;19932;-77
2022/10/14 12:18:42;;;;;;;;;;;17.20;99.90;;;;;;5066699;28;19928;-77
2022/10/14 12:21:15;;;;;;;;;;;17.20;99.90;;;;;;5066681;28;19997;-77
2022/10/14 12:23:45;;;;;;;;;;;17.20;99.90;;;;;;5065839;28;19936;-77
2022/10/14 12:26:33;;;;;;;;;;;17.20;99.90;;;;;;5067869;28;19928;-77
2022/10/14 12:29:04;;;;;;;;;;;17.20;99.90;;;;;;5062728;28;19981;-77
2022/10/14 12:31:37;;;;;;;;;;;17.30;99.90;;;;;;5065525;28;20678;-76
2022/10/14 12:34:22;;;;;;;;;;;17.40;99.90;;;;;;5067701;28;19925;-77
2022/10/14 12:36:51;;;;;;;;;;;17.40;99.90;;;;;;5067173;28;19932;-77
2022/10/14 12:39:22;;;;;;;;;;;17.50;99.90;;;;;;5065969;28;19990;-78
2022/10/14 12:41:53;;;;;;;;;;;17.50;99.90;;;;;;5066098;28;19929;-77
2022/10/14 12:44:20;;;;;;;;;;;17.40;99.90;;;;;;5064741;28;20396;-77
2022/10/14 12:46:49;;;;;;;;;;;17.50;99.90;;;;;;5059227;28;19958;-77
2022/10/14 12:49:18;;;;;;;;;;;17.50;99.90;;;;;;5064744;28;19928;-77
2022/10/14 12:51:54;;;;;;;;;;;17.50;99.90;;;;;;5065838;28;19928;-77
2022/10/14 12:54:23;;;;;;;;;;;17.50;99.90;;;;;;5066637;28;19925;-77
2022/10/14 12:56:56;;;;;;;;;;;17.40;99.90;;;;;;5066401;28;19978;-77
2022/10/14 12:59:26;;;;;;;;;;;17.40;99.90;;;;;;5066940;28;19932;-77
2022/10/14 13:01:54;;;;;;;;;;;17.40;99.90;;;;;;5066063;28;19929;-77
2022/10/14 13:04:22;;;;;;;;;;;17.40;99.90;;;;;;5069157;28;20308;-77
2022/10/14 13:07:17;;;;;;;;;;;17.40;99.90;;;;;;5070317;28;19928;-77
2022/10/14 13:09:46;;;;;;;;;;;16.40;99.90;;;;;;5022178;28;19932;-77
2022/10/14 13:12:34;;;;;;;;;;;17.40;99.90;;;;;;5067760;28;20622;-77
2022/10/14 13:15:01;;;;;;;;;;;17.30;99.90;;;;;;5068838;28;19990;-77
2022/10/14 13:17:29;;;;;;;;;;;17.30;99.90;;;;;;5066507;28;19935;-78
2022/10/14 13:19:56;;;;;;;;;;;17.30;99.90;;;;;;5065606;28;20396;-78
2022/10/14 13:22:42;;;;;;;;;;;17.40;99.90;;;;;;5067574;28;19932;-77
2022/10/14 13:25:15;;;;;;;;;;;17.30;99.90;;;;;;5069469;28;20030;-78
2022/10/14 13:27:47;;;;;;;;;;;17.30;99.90;;;;;;5067624;28;20045;-76
2022/10/14 13:30:18;;;;;;;;;;;17.30;99.90;;;;;;5068718;28;20023;-77
2022/10/14 13:32:47;;;;;;;;;;;17.20;99.90;;;;;;5061461;28;19940;-78
2022/10/14 13:35:21;;;;;;;;;;;17.20;99.90;;;;;;5067434;28;19952;-77
2022/10/14 13:37:53;;;;;;;;;;;17.10;99.90;;;;;;5069336;28;19928;-77
2022/10/14 13:40:26;;;;;;;;;;;17.10;99.90;;;;;;5063207;28;19933;-77
2022/10/14 13:42:56;;;;;;;;;;;17.10;99.90;;;;;;5068011;28;19932;-77
2022/10/14 13:45:26;;;;;;;;;;;17.10;99.90;;;;;;5062455;28;20330;-77
2022/10/14 13:47:54;;;;;;;;;;;17.00;99.90;;;;;;5064727;28;19935;-78
2022/10/14 13:50:22;;;;;;;;;;;16.90;99.90;;;;;;5058162;28;19933;-79
2022/10/14 13:52:54;;;;;;;;;;;16.80;99.90;;;;;;5065168;28;20325;-78
2022/10/14 13:55:22;;;;;;;;;;;16.70;99.90;;;;;;5063939;28;19932;-78
2022/10/14 13:58:01;;;;;;;;;;;16.60;99.90;;;;;;5064623;28;19970;-79
2022/10/14 14:00:29;;;;;;;;;;;16.60;99.90;;;;;;5056161;28;19951;-76
2022/10/14 14:02:56;;;;;;;;;;;16.50;99.90;;;;;;5064750;28;19929;-77
2022/10/14 14:05:25;;;;;;;;;;;16.50;99.90;;;;;;5063424;28;20114;-76
2022/10/14 14:07:52;;;;;;;;;;;16.40;99.90;;;;;;5063586;28;19928;-78
2022/10/14 14:10:20;;;;;;;;;;;16.40;99.90;;;;;;5064277;28;19928;-76
2022/10/14 14:12:47;;;;;;;;;;;16.40;99.90;;;;;;5065253;28;19955;-78
2022/10/14 14:15:19;;;;;;;;;;;16.40;99.90;;;;;;5067697;28;19932;-78
2022/10/14 14:17:46;;;;;;;;;;;16.30;99.90;;;;;;5062111;28;20015;-77
2022/10/14 14:20:16;;;;;;;;;;;16.20;99.90;;;;;;5069479;28;20066;-79
2022/10/14 14:22:44;;;;;;;;;;;16.20;99.90;;;;;;5072805;28;19928;-79
2022/10/14 14:25:11;;;;;;;;;;;15.60;99.90;;;;;;5071934;28;19924;-80
2022/10/14 14:27:43;;;;;;;;;;;16.10;99.90;;;;;;5072663;28;19928;-78
2022/10/14 14:30:21;;;;;;;;;;;16.10;99.90;;;;;;5075330;28;20082;-77
2022/10/14 14:32:48;;;;;;;;;;;16.10;99.90;;;;;;5076140;28;20022;-80
2022/10/14 14:35:18;;;;;;;;;;;16.10;99.90;;;;;;5076776;28;19924;-79
2022/10/14 14:37:45;;;;;;;;;;;16.10;99.90;;;;;;5076145;28;20553;-77